Wetterdaten: aktuell Montag, 27.03.2023 21:20
Datum Zeit Temp. A. Feuchte A. Luftdruck Regen Wind Richtung Richtung Taupunkt Windchill Windben Empfang
27.03.2023 21:20 3,7 C 77 % 1022,4 hPa 0,0 l/m 5,1 km/h (1 Bft) W 269 0,1 C 2,6 C 21,7 km/h (4 Bft) 97 %
27.03.2023 21:10 3,8 C 78 % 1022,5 hPa 0,0 l/m 5,1 km/h (1 Bft) S-SO 166 0,3 C 2,7 C 17,4 km/h (3 Bft) 99 %
27.03.2023 21:00 3,9 C 78 % 1022,4 hPa 0,0 l/m 3,0 km/h (1 Bft) S-SW 200 0,4 C 3,9 C 13,0 km/h (3 Bft) 100 %
27.03.2023 20:50 4,0 C 78 % 1022,4 hPa 0,0 l/m 4,5 km/h (1 Bft) W-NW 293 0,5 C 4,0 C 17,4 km/h (3 Bft) 99 %
27.03.2023 20:40 4,1 C 78 % 1022,4 hPa 0,0 l/m 6,4 km/h (2 Bft) W 270 0,6 C 2,6 C 19,6 km/h (3 Bft) 99 %
27.03.2023 20:30 4,2 C 78 % 1022,2 hPa 0,0 l/m 6,0 km/h (2 Bft) NW 322 0,7 C 2,8 C 21,7 km/h (4 Bft) 99 %
27.03.2023 20:20 4,3 C 78 % 1022,1 hPa 0,0 l/m 5,3 km/h (1 Bft) NW 315 0,8 C 3,2 C 15,2 km/h (3 Bft) 99 %
27.03.2023 20:10 4,4 C 76 % 1022,0 hPa 0,0 l/m 4,4 km/h (1 Bft) W-SW 242 0,5 C 4,4 C 15,2 km/h (3 Bft) 100 %
27.03.2023 20:00 4,6 C 75 % 1021,9 hPa 0,0 l/m 4,0 km/h (1 Bft) N-NW 328 0,6 C 4,6 C 15,2 km/h (3 Bft) 100 %
27.03.2023 19:50 4,7 C 74 % 1022,0 hPa 0,0 l/m 7,0 km/h (2 Bft) NW 310 0,5 C 3,1 C 23,9 km/h (4 Bft) 99 %
27.03.2023 19:40 5,0 C 73 % 1021,9 hPa 0,0 l/m 6,3 km/h (2 Bft) W 270 0,6 C 3,6 C 21,7 km/h (4 Bft) 100 %
27.03.2023 19:30 5,3 C 72 % 1021,7 hPa 0,0 l/m 8,9 km/h (2 Bft) W 260 0,7 C 3,3 C 23,9 km/h (4 Bft) 100 %
27.03.2023 19:20 5,7 C 71 % 1021,6 hPa 0,0 l/m 12,7 km/h (3 Bft) W-NW 298 0,9 C 3,0 C 36,9 km/h (5 Bft) 98 %
27.03.2023 19:10 5,8 C 69 % 1021,4 hPa 0,0 l/m 12,2 km/h (2 Bft) W-NW 298 0,6 C 3,2 C 34,8 km/h (5 Bft) 99 %
27.03.2023 19:00 6,1 C 66 % 1021,2 hPa 0,0 l/m 11,3 km/h (2 Bft) NW 313 0,2 C 3,7 C 39,1 km/h (6 Bft) 100 %
27.03.2023 18:50 6,3 C 67 % 1021,1 hPa 0,0 l/m 13,7 km/h (3 Bft) N-NW 332 0,6 C 3,5 C 30,4 km/h (5 Bft) 98 %
27.03.2023 18:40 6,4 C 66 % 1021,0 hPa 0,2 l/m 12,6 km/h (3 Bft) N-NO 15 0,5 C 3,8 C 39,1 km/h (6 Bft) 99 %
27.03.2023 18:30 6,5 C 69 % 1021,0 hPa 0,0 l/m 12,0 km/h (2 Bft) NW 321 1,2 C 4,1 C 34,8 km/h (5 Bft) 100 %
27.03.2023 18:20 6,3 C 69 % 1020,9 hPa 0,0 l/m 19,5 km/h (3 Bft) N-NW 333 1,0 C 2,8 C 39,1 km/h (6 Bft) 99 %
27.03.2023 18:10 6,2 C 68 % 1020,7 hPa 0,0 l/m 12,1 km/h (2 Bft) NW 306 0,7 C 3,7 C 32,6 km/h (5 Bft) 99 %
27.03.2023 18:01 6,1 C 70 % 1020,6 hPa 0,0 l/m 14,0 km/h (3 Bft) NW 310 1,0 C 3,3 C 30,4 km/h (5 Bft) 100 %
27.03.2023 17:50 6,1 C 75 % 1020,5 hPa 0,0 l/m 8,7 km/h (2 Bft) W-NW 286 2,0 C 4,3 C 26,1 km/h (4 Bft) 100 %
27.03.2023 17:40 6,7 C 72 % 1020,5 hPa 0,2 l/m 11,7 km/h (2 Bft) NW 324 2,0 C 4,4 C 30,4 km/h (5 Bft) 100 %
27.03.2023 17:30 7,5 C 69 % 1020,4 hPa 0,0 l/m 8,2 km/h (2 Bft) NW 319 2,2 C 6,0 C 23,9 km/h (4 Bft) 100 %
27.03.2023 17:20 7,4 C 66 % 1020,4 hPa 0,0 l/m 13,6 km/h (3 Bft) N-NW 342 1,5 C 4,9 C 30,4 km/h (5 Bft) 99 %
27.03.2023 17:10 7,1 C 66 % 1020,3 hPa 0,0 l/m 11,0 km/h (2 Bft) N-NW 346 1,2 C 5,0 C 28,2 km/h (4 Bft) 100 %
27.03.2023 17:00 6,9 C 67 % 1020,4 hPa 0,0 l/m 14,5 km/h (3 Bft) S 182 1,2 C 4,2 C 34,8 km/h (5 Bft) 100 %
27.03.2023 16:50 7,4 C 66 % 1020,4 hPa 0,0 l/m 18,5 km/h (3 Bft) W 275 1,5 C 4,3 C 50,0 km/h (6 Bft) 100 %
27.03.2023 16:40 8,3 C 56 % 1020,0 hPa 0,0 l/m 16,1 km/h (3 Bft) W 277 0,0 C 5,7 C 41,3 km/h (6 Bft) 100 %
27.03.2023 16:30 8,7 C 56 % 1019,7 hPa 0,0 l/m 12,3 km/h (3 Bft) W-NW 298 0,4 C 6,7 C 30,4 km/h (5 Bft) 98 %
27.03.2023 16:20 8,0 C 55 % 1019,8 hPa 0,0 l/m 20,7 km/h (4 Bft) NW 310 -0,5 C 4,8 C 45,6 km/h (6 Bft) 98 %
27.03.2023 16:10 7,7 C 56 % 1019,8 hPa 0,0 l/m 17,9 km/h (3 Bft) W-NW 294 -0,5 C 4,7 C 45,6 km/h (6 Bft) 99 %
27.03.2023 16:00 7,8 C 55 % 1019,8 hPa 0,0 l/m 18,5 km/h (3 Bft) NW 315 -0,7 C 4,8 C 47,8 km/h (6 Bft) 99 %
27.03.2023 15:50 7,4 C 58 % 1019,7 hPa 0,0 l/m 17,6 km/h (3 Bft) NW 321 -0,3 C 4,4 C 36,9 km/h (5 Bft) 99 %
27.03.2023 15:40 8,0 C 57 % 1019,5 hPa 0,0 l/m 16,3 km/h (3 Bft) NW 309 0,0 C 5,3 C 32,6 km/h (5 Bft) 99 %
27.03.2023 15:30 8,3 C 64 % 1019,5 hPa 0,0 l/m 12,7 km/h (3 Bft) W-NW 286 1,9 C 6,1 C 28,2 km/h (4 Bft) 99 %
27.03.2023 15:20 8,1 C 64 % 1019,5 hPa 0,0 l/m 12,3 km/h (3 Bft) NW 323 1,7 C 6,0 C 30,4 km/h (5 Bft) 100 %
27.03.2023 15:10 7,2 C 67 % 1019,5 hPa 0,0 l/m 9,0 km/h (2 Bft) NW 309 1,5 C 5,5 C 28,2 km/h (4 Bft) 100 %
27.03.2023 15:00 6,4 C 72 % 1019,7 hPa 0,0 l/m 11,9 km/h (2 Bft) W-SW 253 1,7 C 4,0 C 23,9 km/h (4 Bft) 98 %
27.03.2023 14:50 6,6 C 68 % 1019,6 hPa 0,0 l/m 20,4 km/h (4 Bft) W 268 1,1 C 3,0 C 50,0 km/h (6 Bft) 99 %
27.03.2023 14:40 8,1 C 60 % 1019,4 hPa 0,0 l/m 13,9 km/h (3 Bft) N-NW 344 0,8 C 5,7 C 41,3 km/h (6 Bft) 100 %
27.03.2023 14:30 8,0 C 58 % 1019,2 hPa 0,0 l/m 11,6 km/h (2 Bft) W-NW 297 0,3 C 6,0 C 28,2 km/h (4 Bft) 100 %
27.03.2023 14:20 7,7 C 55 % 1019,2 hPa 0,0 l/m 16,2 km/h (3 Bft) N-NW 329 -0,8 C 4,9 C 39,1 km/h (6 Bft) 99 %
27.03.2023 14:10 8,5 C 56 % 1019,0 hPa 0,0 l/m 16,5 km/h (3 Bft) W-SW 243 0,2 C 5,9 C 43,5 km/h (6 Bft) 100 %
27.03.2023 14:00 8,5 C 57 % 1018,9 hPa 0,0 l/m 11,1 km/h (2 Bft) NW 312 0,5 C 6,6 C 28,2 km/h (4 Bft) 100 %
27.03.2023 13:50 8,2 C 55 % 1018,8 hPa 0,0 l/m 14,6 km/h (3 Bft) W 281 -0,3 C 5,7 C 39,1 km/h (6 Bft) 99 %
27.03.2023 13:40 8,3 C 59 % 1018,8 hPa 0,0 l/m 16,1 km/h (3 Bft) W 281 0,8 C 5,7 C 41,3 km/h (6 Bft) 100 %
27.03.2023 13:30 8,4 C 59 % 1018,8 hPa 0,0 l/m 13,9 km/h (3 Bft) NW 311 0,9 C 6,1 C 39,1 km/h (6 Bft) 100 %
27.03.2023 13:20 8,4 C 59 % 1018,5 hPa 0,0 l/m 15,4 km/h (3 Bft) W 277 0,9 C 5,9 C 45,6 km/h (6 Bft) 99 %
27.03.2023 13:10 7,9 C 61 % 1018,5 hPa 0,0 l/m 16,0 km/h (3 Bft) N-NW 331 0,9 C 5,2 C 36,9 km/h (5 Bft) 98 %
27.03.2023 13:00 7,8 C 63 % 1018,5 hPa 0,0 l/m 13,3 km/h (3 Bft) W 261 1,2 C 5,4 C 30,4 km/h (5 Bft) 99 %
27.03.2023 12:50 7,4 C 64 % 1018,4 hPa 0,0 l/m 15,7 km/h (3 Bft) N 11 1,0 C 4,6 C 36,9 km/h (5 Bft) 100 %
27.03.2023 12:40 7,2 C 67 % 1018,4 hPa 0,0 l/m 17,9 km/h (3 Bft) N-NW 332 1,5 C 4,1 C 43,5 km/h (6 Bft) 99 %
27.03.2023 12:30 6,9 C 71 % 1018,3 hPa 0,0 l/m 10,6 km/h (2 Bft) NW 313 2,0 C 4,8 C 32,6 km/h (5 Bft) 100 %
27.03.2023 12:20 6,8 C 69 % 1018,4 hPa 0,0 l/m 13,0 km/h (3 Bft) N 360 1,5 C 4,3 C 32,6 km/h (5 Bft) 100 %
27.03.2023 12:10 7,4 C 65 % 1018,1 hPa 0,0 l/m 13,5 km/h (3 Bft) W-NW 301 1,3 C 4,9 C 32,6 km/h (5 Bft) 100 %
27.03.2023 12:00 7,3 C 65 % 1018,2 hPa 0,0 l/m 13,9 km/h (3 Bft) NW 323 1,2 C 4,7 C 30,4 km/h (5 Bft) 100 %
27.03.2023 11:50 7,2 C 66 % 1018,0 hPa 0,0 l/m 10,2 km/h (2 Bft) N-NW 330 1,3 C 5,2 C 28,2 km/h (4 Bft) 100 %
27.03.2023 11:40 6,9 C 67 % 1018,0 hPa 0,0 l/m 12,4 km/h (3 Bft) N-NW 329 1,2 C 4,5 C 28,2 km/h (4 Bft) 100 %
27.03.2023 11:30 6,4 C 67 % 1018,0 hPa 0,0 l/m 14,7 km/h (3 Bft) W-NW 300 0,7 C 3,5 C 41,3 km/h (6 Bft) 100 %
27.03.2023 11:20 6,3 C 72 % 1017,8 hPa 0,0 l/m 13,2 km/h (3 Bft) W 269 1,6 C 3,6 C 39,1 km/h (6 Bft) 98 %
27.03.2023 11:10 6,1 C 78 % 1017,8 hPa 0,0 l/m 8,5 km/h (2 Bft) SO 140 2,6 C 4,3 C 23,9 km/h (4 Bft) 99 %
27.03.2023 11:00 5,6 C 80 % 1017,8 hPa 0,0 l/m 8,9 km/h (2 Bft) SW 233 2,4 C 3,6 C 23,9 km/h (4 Bft) 100 %
27.03.2023 10:50 5,1 C 81 % 1017,8 hPa 0,0 l/m 8,9 km/h (2 Bft) NW 304 2,1 C 3,0 C 26,1 km/h (4 Bft) 100 %
27.03.2023 10:40 5,3 C 77 % 1017,7 hPa 0,2 l/m 14,4 km/h (3 Bft) NW 318 1,6 C 2,2 C 30,4 km/h (5 Bft) 100 %
27.03.2023 10:30 5,6 C 80 % 1017,5 hPa 0,0 l/m 7,3 km/h (2 Bft) NW 309 2,4 C 4,0 C 23,9 km/h (4 Bft) 100 %
27.03.2023 10:20 5,0 C 81 % 1017,5 hPa 0,0 l/m 7,3 km/h (2 Bft) NW 313 2,0 C 3,3 C 21,7 km/h (4 Bft) 100 %
27.03.2023 10:10 4,4 C 85 % 1017,5 hPa 0,0 l/m 4,5 km/h (1 Bft) N 9 2,1 C 4,4 C 15,2 km/h (3 Bft) 100 %
27.03.2023 10:00 3,8 C 86 % 1017,4 hPa 0,2 l/m 5,8 km/h (2 Bft) W-NW 284 1,7 C 2,4 C 17,4 km/h (3 Bft) 99 %
27.03.2023 09:51 3,4 C 88 % 1017,5 hPa 0,0 l/m 5,6 km/h (1 Bft) SW 230 1,6 C 2,0 C 19,6 km/h (3 Bft) 99 %
27.03.2023 09:40 2,9 C 90 % 1017,3 hPa 0,0 l/m 2,6 km/h (1 Bft) W-NW 295 1,4 C 2,9 C 19,6 km/h (3 Bft) 99 %
27.03.2023 09:30 2,6 C 90 % 1017,3 hPa 0,0 l/m 1,2 km/h (1 Bft) SW 228 1,1 C 2,6 C 8,7 km/h (2 Bft) 99 %
27.03.2023 09:20 2,4 C 91 % 1017,2 hPa 0,0 l/m 2,0 km/h (1 Bft) W 279 1,1 C 2,4 C 8,7 km/h (2 Bft) 99 %
27.03.2023 09:10 2,2 C 91 % 1017,1 hPa 0,0 l/m 2,9 km/h (1 Bft) NW 309 0,9 C 2,2 C 13,0 km/h (3 Bft) 100 %
27.03.2023 09:00 1,9 C 91 % 1017,0 hPa 0,0 l/m 2,4 km/h (1 Bft) W-NW 284 0,6 C 1,9 C 8,7 km/h (2 Bft) 100 %
27.03.2023 08:50 1,8 C 91 % 1016,8 hPa 0,0 l/m 3,6 km/h (1 Bft) W 273 0,5 C 1,8 C 15,2 km/h (3 Bft) 100 %
27.03.2023 08:40 1,7 C 92 % 1016,6 hPa 0,0 l/m 4,3 km/h (1 Bft) W 259 0,5 C 1,7 C 13,0 km/h (3 Bft) 100 %
27.03.2023 08:30 1,5 C 92 % 1016,5 hPa 0,0 l/m 5,0 km/h (1 Bft) W 280 0,3 C 0,1 C 17,4 km/h (3 Bft) 99 %
27.03.2023 08:20 1,3 C 92 % 1016,5 hPa 0,0 l/m 1,3 km/h (1 Bft) W 273 0,1 C 1,3 C 8,7 km/h (2 Bft) 100 %
27.03.2023 08:10 1,3 C 92 % 1016,2 hPa 0,0 l/m 3,0 km/h (1 Bft) SW 232 0,1 C 1,3 C 10,9 km/h (2 Bft) 100 %
27.03.2023 08:00 1,3 C 92 % 1016,2 hPa 0,0 l/m 2,9 km/h (1 Bft) SW 223 0,1 C 1,3 C 8,7 km/h (2 Bft) 100 %
27.03.2023 07:50 1,3 C 92 % 1016,1 hPa 0,0 l/m 3,5 km/h (1 Bft) W 267 0,1 C 1,3 C 21,7 km/h (4 Bft) 100 %
27.03.2023 07:40 1,4 C 92 % 1016,0 hPa 0,0 l/m 2,7 km/h (1 Bft) W 279 0,2 C 1,4 C 8,7 km/h (2 Bft) 100 %
27.03.2023 07:30 1,4 C 92 % 1015,8 hPa 0,0 l/m 3,7 km/h (1 Bft) W 261 0,2 C 1,4 C 13,0 km/h (3 Bft) 100 %
27.03.2023 07:20 1,4 C 92 % 1015,8 hPa 0,0 l/m 5,0 km/h (1 Bft) W-SW 257 0,2 C -0,0 C 17,4 km/h (3 Bft) 98 %
27.03.2023 07:10 1,2 C 92 % 1015,8 hPa 0,0 l/m 1,9 km/h (1 Bft) W-NW 287 0,0 C 1,2 C 13,0 km/h (3 Bft) 99 %
27.03.2023 07:00 1,1 C 92 % 1015,6 hPa 0,0 l/m 1,8 km/h (1 Bft) W 261 -0,1 C 1,1 C 13,0 km/h (3 Bft) 100 %
27.03.2023 06:50 1,0 C 92 % 1015,5 hPa 0,0 l/m 1,7 km/h (1 Bft) W 273 -0,2 C 1,0 C 10,9 km/h (2 Bft) 100 %
27.03.2023 06:40 0,9 C 92 % 1015,3 hPa 0,0 l/m 1,8 km/h (1 Bft) W-SW 239 -0,2 C 0,9 C 6,5 km/h (2 Bft) 99 %
27.03.2023 06:30 1,1 C 92 % 1015,2 hPa 0,0 l/m 1,2 km/h (1 Bft) W 271 -0,1 C 1,1 C 6,5 km/h (2 Bft) 99 %
27.03.2023 06:20 1,2 C 92 % 1015,0 hPa 0,0 l/m 1,2 km/h (1 Bft) W 269 0,0 C 1,2 C 6,5 km/h (2 Bft) 100 %
27.03.2023 06:10 1,4 C 92 % 1015,0 hPa 0,0 l/m 1,3 km/h (1 Bft) W 271 0,2 C 1,4 C 6,5 km/h (2 Bft) 100 %
27.03.2023 06:00 1,4 C 92 % 1014,8 hPa 0,0 l/m 2,5 km/h (1 Bft) W 276 0,2 C 1,4 C 8,7 km/h (2 Bft) 100 %
27.03.2023 05:50 1,4 C 92 % 1014,8 hPa 0,0 l/m 1,9 km/h (1 Bft) W 280 0,2 C 1,4 C 6,5 km/h (2 Bft) 99 %
27.03.2023 05:40 1,4 C 92 % 1014,7 hPa 0,0 l/m 5,7 km/h (1 Bft) NW 313 0,2 C -0,3 C 17,4 km/h (3 Bft) 99 %
27.03.2023 05:30 1,1 C 93 % 1014,7 hPa 0,0 l/m 10,1 km/h (2 Bft) W-NW 299 0,1 C -2,0 C 32,6 km/h (5 Bft) 99 %
27.03.2023 05:20 0,0 C 92 % 1014,7 hPa 0,0 l/m 0,9 km/h (0 Bft) W-SW 238 -1,1 C 0,0 C 6,5 km/h (2 Bft) 99 %
27.03.2023 05:10 -0,2 C 90 % 1014,3 hPa 0,0 l/m 0,9 km/h (0 Bft) O-NO 67 -1,6 C -0,2 C 2,2 km/h (1 Bft) 99 %
27.03.2023 05:00 0,0 C 90 % 1014,2 hPa 0,0 l/m 0,2 km/h (0 Bft) O-NO 64 -1,4 C 0,0 C 2,2 km/h (1 Bft) 100 %
27.03.2023 04:50 0,2 C 90 % 1014,1 hPa 0,0 l/m 0,0 km/h (0 Bft) O-NO 64 -1,2 C 0,2 C 0,0 km/h (0 Bft) 99 %
27.03.2023 04:40 0,4 C 89 % 1014,1 hPa 0,0 l/m 0,0 km/h (0 Bft) O-NO 63 -1,2 C 0,4 C 0,0 km/h (0 Bft) 100 %
27.03.2023 04:30 0,7 C 90 % 1014,1 hPa 0,0 l/m 0,0 km/h (0 Bft) O-NO 63 -0,7 C 0,7 C 0,0 km/h (0 Bft) 100 %
27.03.2023 04:20 0,8 C 90 % 1013,9 hPa 0,0 l/m 0,2 km/h (0 Bft) O-NO 61 -0,6 C 0,8 C 2,2 km/h (1 Bft) 100 %
27.03.2023 04:10 1,0 C 89 % 1013,8 hPa 0,0 l/m 0,0 km/h (0 Bft) O-NO 61 -0,6 C 1,0 C 2,2 km/h (1 Bft) 100 %
27.03.2023 04:00 1,2 C 90 % 1013,6 hPa 0,0 l/m 0,9 km/h (0 Bft) O-NO 61 -0,3 C 1,2 C 4,3 km/h (1 Bft) 100 %
27.03.2023 03:50 1,2 C 90 % 1013,5 hPa 0,0 l/m 0,4 km/h (0 Bft) W-NW 296 -0,3 C 1,2 C 6,5 km/h (2 Bft) 99 %
27.03.2023 03:40 1,2 C 90 % 1013,6 hPa 0,0 l/m 0,6 km/h (0 Bft) W-NW 293 -0,3 C 1,2 C 6,5 km/h (2 Bft) 100 %
27.03.2023 03:30 1,2 C 90 % 1013,4 hPa 0,0 l/m 0,5 km/h (0 Bft) N-NW 329 -0,3 C 1,2 C 4,3 km/h (1 Bft) 99 %
27.03.2023 03:20 1,1 C 90 % 1013,2 hPa 0,0 l/m 0,5 km/h (0 Bft) N-NW 330 -0,4 C 1,1 C 8,7 km/h (2 Bft) 99 %
27.03.2023 03:10 1,1 C 90 % 1013,1 hPa 0,0 l/m 0,2 km/h (0 Bft) NW 304 -0,4 C 1,1 C 6,5 km/h (2 Bft) 100 %
27.03.2023 03:00 1,0 C 90 % 1013,1 hPa 0,0 l/m 0,6 km/h (0 Bft) NW 305 -0,5 C 1,0 C 6,5 km/h (2 Bft) 99 %
27.03.2023 02:50 0,8 C 89 % 1013,0 hPa 0,0 l/m 0,5 km/h (0 Bft) NW 305 -0,8 C 0,8 C 6,5 km/h (2 Bft) 100 %
27.03.2023 02:40 0,9 C 88 % 1013,0 hPa 0,0 l/m 0,2 km/h (0 Bft) W-NW 302 -0,9 C 0,9 C 4,3 km/h (1 Bft) 99 %
27.03.2023 02:30 1,1 C 87 % 1012,9 hPa 0,0 l/m 0,1 km/h (0 Bft) W-NW 302 -0,8 C 1,1 C 2,2 km/h (1 Bft) 100 %
27.03.2023 02:20 1,3 C 86 % 1012,7 hPa 0,0 l/m 0,0 km/h (0 Bft) W-NW 301 -0,8 C 1,3 C 0,0 km/h (0 Bft) 100 %
27.03.2023 02:10 1,6 C 86 % 1012,7 hPa 0,0 l/m 0,0 km/h (0 Bft) W-NW 301 -0,5 C 1,6 C 0,0 km/h (0 Bft) 99 %
27.03.2023 02:00 1,9 C 85 % 1012,5 hPa 0,0 l/m 0,1 km/h (0 Bft) W-NW 301 -0,3 C 1,9 C 2,2 km/h (1 Bft) 100 %
27.03.2023 01:50 2,1 C 85 % 1012,3 hPa 0,0 l/m 0,4 km/h (0 Bft) W-NW 301 -0,2 C 2,1 C 4,3 km/h (1 Bft) 99 %
27.03.2023 01:40 2,3 C 85 % 1012,2 hPa 0,0 l/m 1,0 km/h (0 Bft) W-NW 301 0,0 C 2,3 C 6,5 km/h (2 Bft) 100 %
27.03.2023 01:30 2,5 C 84 % 1012,1 hPa 0,0 l/m 1,0 km/h (0 Bft) W-NW 302 0,1 C 2,5 C 6,5 km/h (2 Bft) 100 %
27.03.2023 01:20 2,6 C 84 % 1011,9 hPa 0,0 l/m 3,0 km/h (1 Bft) W-NW 291 0,2 C 2,6 C 8,7 km/h (2 Bft) 100 %
27.03.2023 01:10 2,7 C 84 % 1011,9 hPa 0,0 l/m 3,2 km/h (1 Bft) NW 312 0,3 C 2,7 C 10,9 km/h (2 Bft) 100 %
27.03.2023 01:00 2,7 C 84 % 1011,6 hPa 0,0 l/m 2,5 km/h (1 Bft) NW 324 0,3 C 2,7 C 6,5 km/h (2 Bft) 100 %
27.03.2023 00:50 2,7 C 84 % 1011,5 hPa 0,0 l/m 1,2 km/h (1 Bft) N-NW 336 0,3 C 2,7 C 6,5 km/h (2 Bft) 99 %
27.03.2023 00:40 2,8 C 84 % 1011,3 hPa 0,0 l/m 1,7 km/h (1 Bft) N-NW 329 0,4 C 2,8 C 6,5 km/h (2 Bft) 98 %
27.03.2023 00:30 2,8 C 84 % 1011,1 hPa 0,0 l/m 1,9 km/h (1 Bft) NW 317 0,4 C 2,8 C 6,5 km/h (2 Bft) 100 %
27.03.2023 00:20 2,8 C 84 % 1011,1 hPa 0,0 l/m 0,8 km/h (0 Bft) N 351 0,4 C 2,8 C 4,3 km/h (1 Bft) 99 %
27.03.2023 00:10 2,9 C 83 % 1011,0 hPa 0,0 l/m 1,1 km/h (1 Bft) N-NW 327 0,3 C 2,9 C 6,5 km/h (2 Bft) 100 %
27.03.2023 00:00 2,9 C 83 % 1010,7 hPa 0,0 l/m 2,0 km/h (1 Bft) NW 317 0,3 C 2,9 C 8,7 km/h (2 Bft) 100 %
26.03.2023 23:50 2,9 C 83 % 1010,6 hPa 0,0 l/m 2,0 km/h (1 Bft) N 9 0,3 C 2,9 C 8,7 km/h (2 Bft) 100 %
26.03.2023 23:40 2,9 C 82 % 1010,5 hPa 0,0 l/m 2,0 km/h (1 Bft) N-NW 332 0,1 C 2,9 C 10,9 km/h (2 Bft) 99 %
26.03.2023 23:30 2,9 C 81 % 1010,3 hPa 0,0 l/m 1,5 km/h (1 Bft) W-SW 247 -0,0 C 2,9 C 6,5 km/h (2 Bft) 99 %
26.03.2023 23:20 2,9 C 81 % 1010,2 hPa 0,0 l/m 1,2 km/h (1 Bft) N-NW 330 -0,0 C 2,9 C 4,3 km/h (1 Bft) 100 %
26.03.2023 23:10 3,1 C 80 % 1010,0 hPa 0,0 l/m 1,2 km/h (1 Bft) NW 326 -0,0 C 3,1 C 6,5 km/h (2 Bft) 100 %
26.03.2023 23:00 3,2 C 80 % 1009,9 hPa 0,0 l/m 1,1 km/h (1 Bft) NW 324 0,1 C 3,2 C 4,3 km/h (1 Bft) 100 %
26.03.2023 22:50 3,3 C 79 % 1009,8 hPa 0,0 l/m 1,1 km/h (1 Bft) W-NW 301 0,0 C 3,3 C 6,5 km/h (2 Bft) 100 %
26.03.2023 22:40 3,4 C 79 % 1009,7 hPa 0,0 l/m 2,0 km/h (1 Bft) N-NO 32 0,1 C 3,4 C 8,7 km/h (2 Bft) 100 %
26.03.2023 22:30 3,6 C 78 % 1009,5 hPa 0,0 l/m 2,1 km/h (1 Bft) N-NO 17 0,1 C 3,6 C 8,7 km/h (2 Bft) 100 %
26.03.2023 22:20 3,7 C 78 % 1009,4 hPa 0,0 l/m 2,5 km/h (1 Bft) N 11 0,2 C 3,7 C 8,7 km/h (2 Bft) 99 %
26.03.2023 22:10 3,8 C 77 % 1009,3 hPa 0,0 l/m 2,6 km/h (1 Bft) NW 319 0,1 C 3,8 C 8,7 km/h (2 Bft) 100 %
26.03.2023 22:00 3,9 C 77 % 1009,2 hPa 0,0 l/m 4,4 km/h (1 Bft) NW 326 0,2 C 3,9 C 15,2 km/h (3 Bft) 98 %
_ Min-Zeit 05:10 13:50 22:00 - 02:10 - - 05:10 05:30 02:10 21:20
Minimum _ -0,2 C 55 % 1009,2 hPa - 0,0 km/h (0 Bft) - - -1,6 C -2,0 C 0,0 km/h (0 Bft) 97 %
_ Max-Zeit 14:10 05:30 21:10 10:00 16:20 - - 11:10 16:30 14:50 22:30
Maximum _ 8,7 C 93 % 1022,5 hPa 0,2 l/m 20,7 km/h
NW (4 Bft)
- - 2,6 C 6,7 C 50,0 km/h
NW (6 Bft)
100 %
Durchschnitt _ 4,1 C 78 % 1016,0 hPa #0,8 l/m 6,6 km/h (2 Bft) NW - 0,5 C 3,1 C 19,1 km/h (3 Bft) 99 %